Time;durP1;ratioP1;P1;durP2;ratioP2;P2;SDS_P1;SDS_P2;PMS_P1;PMS_P2;Temp;Humidity;BMP_temperature;BMP_pressure;BME280_temperature;BME280_humidity;BME280_pressure;Samples;Min_cycle;Max_cycle;Signal;HPM_P1;HPM_P2
2023/05/02 00:00:44;;;;;;;;;;;;;;;21.79;78.70;101848.50;5118095;28;19931;-50
2023/05/02 00:03:10;;;;;;;;;;;;;;;21.73;79.19;101835.88;5120012;28;19908;-52
2023/05/02 00:05:35;;;;;;;;;;;;;;;21.60;78.69;101828.84;5122046;28;19946;-52
2023/05/02 00:08:01;;;;;;;;;;;;;;;21.51;79.22;101828.41;5121819;28;19916;-55
2023/05/02 00:10:26;;;;;;;;;;;;;;;21.14;80.69;101831.53;5119302;28;19916;-51
2023/05/02 00:12:51;;;;;;;;;;;;;;;20.41;82.66;101832.75;5121437;28;19908;-54
2023/05/02 00:15:17;;;;;;;;;;;;;;;21.17;80.79;101829.16;5121853;28;19920;-51
2023/05/02 00:17:43;;;;;;;;;;;;;;;21.44;79.54;101835.88;5119128;28;19920;-55
2023/05/02 00:20:10;;;;;;;;;;;;;;;21.31;79.59;101837.00;5117877;28;19975;-54
2023/05/02 00:22:36;;;;;;;;;;;;;;;21.54;78.38;101836.09;5115652;28;19916;-55
2023/05/02 00:25:01;;;;;;;;;;;;;;;21.39;78.96;101833.06;5113875;28;20003;-55
2023/05/02 00:27:28;;;;;;;;;;;;;;;21.32;79.32;101839.50;5117716;28;19923;-51
2023/05/02 00:29:54;;;;;;;;;;;;;;;21.35;79.26;101840.91;5118411;28;19938;-53
2023/05/02 00:32:19;;;;;;;;;;;;;;;20.80;81.66;101842.28;5115068;28;19916;-52
2023/05/02 00:34:45;;;;;;;;;;;;;;;20.77;81.41;101833.53;5114396;28;19935;-53
2023/05/02 00:37:10;;;;;;;;;;;;;;;21.04;81.09;101840.31;5117003;28;19946;-54
2023/05/02 00:39:35;;;;;;;;;;;;;;;21.44;78.92;101842.16;5120785;28;19973;-54
2023/05/02 00:42:01;;;;;;;;;;;;;;;21.23;79.85;101843.69;5120126;28;20020;-52
2023/05/02 00:44:27;;;;;;;;;;;;;;;21.31;79.43;101839.72;5121254;28;19916;-52
2023/05/02 00:46:53;;;;;;;;;;;;;;;21.64;78.39;101838.16;5117883;28;19954;-56
2023/05/02 00:49:18;;;;;;;;;;;;;;;21.69;77.77;101841.00;5148996;27;19996;-56
2023/05/02 00:51:44;;;;;;;;;;;;;;;21.89;77.18;101837.78;5117134;28;19920;-52
2023/05/02 00:54:14;;;;;;;;;;;;;;;21.65;77.48;101841.72;5117329;28;19920;-55
2023/05/02 00:56:39;;;;;;;;;;;;;;;21.76;77.37;101835.41;5112350;28;19939;-52
2023/05/02 00:59:04;;;;;;;;;;;;;;;21.18;78.72;101824.53;5145117;27;19946;-53
2023/05/02 01:01:35;;;;;;;;;;;;;;;21.03;80.17;101825.91;5119865;28;19916;-55
2023/05/02 01:04:14;;;;;;;;;;;;;;;21.29;79.66;101836.44;5121245;28;19983;-54
2023/05/02 01:07:06;;;;;;;;;;;;;;;21.43;79.51;101829.63;5117932;28;19916;-56
2023/05/02 01:09:45;;;;;;;;;;;;;;;20.98;81.11;101833.94;5120634;28;19923;-54
2023/05/02 01:12:25;;;;;;;;;;;;;;;21.28;80.28;101837.50;5119476;28;19922;-53
2023/05/02 01:14:53;;;;;;;;;;;;;;;21.14;81.39;101839.69;5116085;28;19928;-54
2023/05/02 01:17:20;;;;;;;;;;;;;;;21.46;79.38;101833.78;5118717;28;19922;-53
2023/05/02 01:19:56;;;;;;;;;;;;;;;21.09;83.18;101839.59;5111954;28;19920;-51
2023/05/02 01:22:24;;;;;;;;;;;;;;;21.25;81.21;101841.56;5115906;28;19926;-54
2023/05/02 01:25:08;;;;;;;;;;;;;;;21.40;80.29;101849.19;5119676;28;19930;-54
2023/05/02 01:27:52;;;;;;;;;;;;;;;21.13;82.54;101843.47;5123586;28;19941;-50
2023/05/02 01:30:19;;;;;;;;;;;;;;;21.31;80.62;101846.00;5154025;27;19916;-55
2023/05/02 01:32:47;;;;;;;;;;;;;;;21.25;81.14;101849.72;5124497;28;19922;-53
2023/05/02 01:35:14;;;;;;;;;;;;;;;21.39;81.09;101852.13;5120889;28;19926;-54
2023/05/02 01:37:42;;;;;;;;;;;;;;;21.19;81.19;101853.38;5122571;28;19946;-50
2023/05/02 01:40:09;;;;;;;;;;;;;;;21.33;81.25;101856.63;5123017;28;19915;-55
2023/05/02 01:42:35;;;;;;;;;;;;;;;21.25;81.68;101857.88;5124227;28;19948;-52
2023/05/02 01:45:02;;;;;;;;;;;;;;;21.46;80.83;101869.16;5123171;28;19916;-54
2023/05/02 01:47:30;;;;;;;;;;;;;;;21.56;80.00;101869.31;5119651;28;19993;-52
2023/05/02 01:49:57;;;;;;;;;;;;;;;21.52;80.25;101865.44;5120749;28;19924;-51
2023/05/02 01:52:24;;;;;;;;;;;;;;;20.98;82.71;101869.28;5110919;28;19952;-54
2023/05/02 01:54:50;;;;;;;;;;;;;;;20.48;84.30;101882.34;5107964;28;19966;-53
2023/05/02 01:57:17;;;;;;;;;;;;;;;20.90;84.17;101880.56;5092742;28;19916;-51
2023/05/02 01:59:45;;;;;;;;;;;;;;;21.13;82.81;101874.25;5092758;28;19916;-53
2023/05/02 02:02:11;;;;;;;;;;;;;;;21.30;81.48;101881.63;5111738;28;19979;-53
2023/05/02 02:04:38;;;;;;;;;;;;;;;21.45;80.71;101881.91;5110235;28;19922;-50
2023/05/02 02:07:09;;;;;;;;;;;;;;;20.98;82.86;101888.31;5124294;28;19935;-52
2023/05/02 02:09:35;;;;;;;;;;;;;;;21.51;80.66;101885.56;5108667;28;19939;-52
2023/05/02 02:12:04;;;;;;;;;;;;;;;21.29;81.03;101888.97;5106782;28;20006;-50
2023/05/02 02:14:35;;;;;;;;;;;;;;;20.99;82.47;101894.59;5103878;28;19990;-51
2023/05/02 02:17:04;;;;;;;;;;;;;;;20.81;84.98;101899.13;5108697;28;19927;-51
2023/05/02 02:19:31;;;;;;;;;;;;;;;21.54;81.11;101901.41;5107996;28;19916;-51
2023/05/02 02:21:57;;;;;;;;;;;;;;;21.45;80.64;101898.25;5125137;28;19984;-52
2023/05/02 02:24:24;;;;;;;;;;;;;;;21.78;80.43;101909.47;5125061;28;19916;-53
2023/05/02 02:26:50;;;;;;;;;;;;;;;21.62;78.81;101908.34;5106447;28;19938;-54
2023/05/02 02:29:15;;;;;;;;;;;;;;;21.37;78.89;101908.69;5089981;28;19923;-55
2023/05/02 02:31:41;;;;;;;;;;;;;;;20.89;80.64;101911.53;5089619;28;19923;-51
2023/05/02 02:34:07;;;;;;;;;;;;;;;21.63;76.96;101913.53;5105180;28;19928;-54
2023/05/02 02:36:41;;;;;;;;;;;;;;;21.64;75.87;101917.09;5103840;28;19920;-53
2023/05/02 02:39:16;;;;;;;;;;;;;;;21.40;77.26;101919.06;5106203;28;19927;-52
2023/05/02 02:41:49;;;;;;;;;;;;;;;21.06;77.31;101922.47;5086446;28;19917;-50
2023/05/02 02:44:20;;;;;;;;;;;;;;;21.22;77.50;101917.38;5105831;28;19931;-52
2023/05/02 02:46:54;;;;;;;;;;;;;;;21.43;76.22;101926.75;5090362;28;19942;-54
2023/05/02 02:49:39;;;;;;;;;;;;;;;21.80;74.77;101933.72;5121688;28;19917;-56
2023/05/02 02:52:23;;;;;;;;;;;;;;;21.98;73.69;101943.59;5097138;28;19920;-55
2023/05/02 02:54:51;;;;;;;;;;;;;;;21.29;75.05;101942.53;5147251;27;19920;-53
2023/05/02 02:57:22;;;;;;;;;;;;;;;21.19;76.18;101948.59;5122799;28;19938;-52
2023/05/02 03:00:08;;;;;;;;;;;;;;;21.15;76.20;101936.53;5115325;28;19916;-50
2023/05/02 03:02:34;;;;;;;;;;;;;;;21.23;76.02;101946.22;5141088;27;19942;-50
2023/05/02 03:05:01;;;;;;;;;;;;;;;21.06;75.52;101944.25;5115024;28;19916;-53
2023/05/02 03:07:28;;;;;;;;;;;;;;;21.33;74.65;101944.53;5119144;28;19916;-53
2023/05/02 03:09:54;;;;;;;;;;;;;;;20.96;75.28;101947.56;5114057;28;19916;-53
2023/05/02 03:12:22;;;;;;;;;;;;;;;20.92;74.38;101951.81;5114676;28;19948;-54
2023/05/02 03:14:49;;;;;;;;;;;;;;;20.80;74.63;101953.75;5118940;28;19919;-55
2023/05/02 03:17:16;;;;;;;;;;;;;;;20.54;74.76;101955.84;5114404;28;19920;-53
2023/05/02 03:19:42;;;;;;;;;;;;;;;20.59;74.77;101961.41;5118549;28;19916;-55
2023/05/02 03:22:09;;;;;;;;;;;;;;;20.34;75.06;101970.59;5117132;28;20003;-56
2023/05/02 03:24:35;;;;;;;;;;;;;;;20.69;73.45;101972.50;5115208;28;19900;-54
2023/05/02 03:27:01;;;;;;;;;;;;;;;20.76;72.70;101975.09;5115082;28;19916;-52
2023/05/02 03:29:33;;;;;;;;;;;;;;;20.56;74.46;101980.88;5121159;28;19924;-53
2023/05/02 03:31:59;;;;;;;;;;;;;;;20.63;73.04;101985.13;5118702;28;19916;-54
2023/05/02 03:34:25;;;;;;;;;;;;;;;20.80;72.00;101983.66;5121083;28;19924;-51
2023/05/02 03:36:52;;;;;;;;;;;;;;;20.82;70.43;101992.38;5114769;28;19926;-51
2023/05/02 03:39:18;;;;;;;;;;;;;;;21.00;69.32;101994.16;5114483;28;19957;-55
2023/05/02 03:41:45;;;;;;;;;;;;;;;20.95;69.85;101997.56;5122024;28;19916;-52
2023/05/02 03:44:15;;;;;;;;;;;;;;;20.71;68.56;101999.44;5120924;28;19923;-51
2023/05/02 03:46:40;;;;;;;;;;;;;;;20.16;71.12;101995.91;5117980;28;19916;-52
2023/05/02 03:49:09;;;;;;;;;;;;;;;20.29;69.72;102001.16;5119856;28;19923;-54
2023/05/02 03:51:36;;;;;;;;;;;;;;;20.13;69.83;101999.94;5120561;28;19924;-54
2023/05/02 03:54:03;;;;;;;;;;;;;;;20.30;68.94;102010.16;5121803;28;19931;-52
2023/05/02 03:56:28;;;;;;;;;;;;;;;20.26;68.95;102006.22;5119869;28;19916;-51
2023/05/02 03:59:08;;;;;;;;;;;;;;;20.69;67.98;102015.16;5115142;28;19975;-54
2023/05/02 04:01:34;;;;;;;;;;;;;;;20.17;69.03;102012.00;5115346;28;19915;-52
2023/05/02 04:04:01;;;;;;;;;;;;;;;19.95;69.62;102006.22;5114215;28;19916;-51
2023/05/02 04:06:31;;;;;;;;;;;;;;;19.84;70.71;102024.13;5115161;28;19951;-53
2023/05/02 04:09:00;;;;;;;;;;;;;;;20.14;69.80;102025.19;5113627;28;19922;-53
2023/05/02 04:11:33;;;;;;;;;;;;;;;19.74;70.99;102031.97;5121474;28;19920;-52
2023/05/02 04:13:59;;;;;;;;;;;;;;;20.29;69.50;102030.19;5111833;28;19963;-52
2023/05/02 04:16:25;;;;;;;;;;;;;;;20.08;69.58;102026.13;5117979;28;19916;-55
2023/05/02 04:18:50;;;;;;;;;;;;;;;19.69;71.34;102037.25;5117098;28;19971;-53
2023/05/02 04:21:17;;;;;;;;;;;;;;;19.83;71.32;102044.16;5114060;28;19912;-51
2023/05/02 04:23:44;;;;;;;;;;;;;;;19.68;71.31;102043.75;5103202;28;19920;-53
2023/05/02 04:26:10;;;;;;;;;;;;;;;20.03;70.38;102038.50;5116775;28;19948;-55
2023/05/02 04:28:43;;;;;;;;;;;;;;;19.61;71.33;102055.50;5116539;28;19937;-54
2023/05/02 04:31:11;;;;;;;;;;;;;;;19.47;71.87;102048.56;5113781;28;19916;-53
2023/05/02 04:33:37;;;;;;;;;;;;;;;19.47;72.27;102052.09;5117156;28;19927;-53
2023/05/02 04:36:02;;;;;;;;;;;;;;;19.75;70.85;102058.88;5121404;28;19923;-50
2023/05/02 04:38:29;;;;;;;;;;;;;;;19.78;71.22;102058.44;5118919;28;19965;-53
2023/05/02 04:40:55;;;;;;;;;;;;;;;19.69;71.03;102058.97;5125157;28;19975;-51
2023/05/02 04:43:29;;;;;;;;;;;;;;;19.61;70.26;102066.38;5119338;28;20395;-53
2023/05/02 04:45:59;;;;;;;;;;;;;;;19.42;71.00;102068.22;5118884;28;19916;-53
2023/05/02 04:48:32;;;;;;;;;;;;;;;19.55;71.14;102075.38;5115752;28;19916;-52
2023/05/02 04:50:58;;;;;;;;;;;;;;;19.54;70.81;102076.44;5135185;28;19917;-54
2023/05/02 04:53:23;;;;;;;;;;;;;;;19.67;68.74;102080.88;5119482;28;19965;-54
2023/05/02 04:55:49;;;;;;;;;;;;;;;20.04;68.96;102082.75;5119305;28;19944;-53
2023/05/02 04:58:15;;;;;;;;;;;;;;;19.78;68.59;102087.44;5119234;28;19975;-56
2023/05/02 05:00:42;;;;;;;;;;;;;;;19.50;68.21;102088.81;5122534;28;19923;-52
2023/05/02 05:03:07;;;;;;;;;;;;;;;19.43;68.35;102094.28;5123357;28;19915;-51
2023/05/02 05:05:33;;;;;;;;;;;;;;;19.28;69.95;102100.06;5122609;28;19916;-48
2023/05/02 05:07:59;;;;;;;;;;;;;;;19.25;69.58;102103.25;5124177;28;20007;-54
2023/05/02 05:10:28;;;;;;;;;;;;;;;18.86;70.16;102105.19;5122205;28;19923;-54
2023/05/02 05:12:54;;;;;;;;;;;;;;;19.02;69.19;102110.13;5121438;28;19915;-53
2023/05/02 05:15:22;;;;;;;;;;;;;;;19.43;69.18;102113.28;5120044;28;19988;-49
2023/05/02 05:17:53;;;;;;;;;;;;;;;19.63;69.00;102120.38;5118704;28;19924;-56
2023/05/02 05:20:19;;;;;;;;;;;;;;;19.14;68.81;102120.22;5120418;28;20011;-52
2023/05/02 05:22:46;;;;;;;;;;;;;;;19.57;68.61;102116.69;5119244;28;19938;-50
2023/05/02 05:25:12;;;;;;;;;;;;;;;19.69;68.28;102126.81;5117924;28;19916;-52
2023/05/02 05:27:39;;;;;;;;;;;;;;;19.58;68.00;102129.19;5120914;28;19920;-53
2023/05/02 05:30:06;;;;;;;;;;;;;;;19.46;69.11;102134.53;5120497;28;19916;-52
2023/05/02 05:32:32;;;;;;;;;;;;;;;19.69;68.18;102143.09;5121361;28;19923;-53
2023/05/02 05:34:57;;;;;;;;;;;;;;;19.66;69.53;102132.69;5120053;28;19983;-52
2023/05/02 05:37:25;;;;;;;;;;;;;;;19.55;68.37;102148.63;5118057;28;19920;-51
2023/05/02 05:39:51;;;;;;;;;;;;;;;19.63;69.01;102153.78;5121624;28;19997;-53
2023/05/02 05:42:16;;;;;;;;;;;;;;;19.66;69.54;102151.69;5121065;28;19916;-52
2023/05/02 05:44:44;;;;;;;;;;;;;;;19.90;66.35;102161.66;5118250;28;19927;-53
2023/05/02 05:47:10;;;;;;;;;;;;;;;20.25;64.46;102167.53;5119969;28;19916;-55
2023/05/02 05:49:36;;;;;;;;;;;;;;;20.51;63.46;102177.22;5118916;28;19916;-53
2023/05/02 05:52:02;;;;;;;;;;;;;;;20.41;63.48;102171.50;5116743;28;20405;-49
2023/05/02 05:54:28;;;;;;;;;;;;;;;20.33;63.25;102180.81;5118500;28;19920;-52
2023/05/02 05:56:53;;;;;;;;;;;;;;;20.28;63.26;102177.94;5119775;28;19983;-52
2023/05/02 05:59:19;;;;;;;;;;;;;;;20.34;61.91;102179.75;5125630;28;19995;-52
2023/05/02 06:01:44;;;;;;;;;;;;;;;20.17;61.79;102180.38;5121471;28;19916;-55
2023/05/02 06:04:11;;;;;;;;;;;;;;;20.31;61.38;102189.19;5125823;28;19916;-54
2023/05/02 06:06:40;;;;;;;;;;;;;;;20.56;61.69;102195.56;5120994;28;19911;-53
2023/05/02 06:09:05;;;;;;;;;;;;;;;20.23;61.91;102194.09;5126466;28;19943;-49
2023/05/02 06:11:31;;;;;;;;;;;;;;;20.69;60.43;102205.41;5114758;28;19987;-52
2023/05/02 06:13:57;;;;;;;;;;;;;;;20.77;60.61;102208.66;5107986;28;19920;-52
2023/05/02 06:16:23;;;;;;;;;;;;;;;20.97;59.20;102207.53;5117049;28;19994;-54
2023/05/02 06:18:49;;;;;;;;;;;;;;;20.67;61.51;102219.22;5117532;28;19904;-57
2023/05/02 06:21:15;;;;;;;;;;;;;;;20.72;59.93;102222.06;5120196;28;19947;-54
2023/05/02 06:23:41;;;;;;;;;;;;;;;20.82;61.48;102221.56;5120068;28;20001;-53
2023/05/02 06:26:06;;;;;;;;;;;;;;;20.18;62.58;102222.75;5156130;27;19920;-51
2023/05/02 06:28:32;;;;;;;;;;;;;;;20.17;64.90;102226.53;5118063;28;19916;-54
2023/05/02 06:30:57;;;;;;;;;;;;;;;20.38;61.71;102235.28;5117471;28;19916;-55
2023/05/02 06:33:22;;;;;;;;;;;;;;;20.23;60.81;102240.25;5118099;28;19979;-51
2023/05/02 06:35:52;;;;;;;;;;;;;;;20.34;60.34;102258.53;5123203;28;19915;-51
2023/05/02 06:38:17;;;;;;;;;;;;;;;20.28;60.09;102253.97;5121845;28;19920;-53
2023/05/02 06:40:44;;;;;;;;;;;;;;;20.34;59.55;102258.53;5119393;28;19915;-50
2023/05/02 06:43:09;;;;;;;;;;;;;;;20.34;59.33;102262.06;5116506;28;19916;-51
2023/05/02 06:45:35;;;;;;;;;;;;;;;20.55;58.25;102267.28;5121265;28;19973;-50
2023/05/02 06:48:01;;;;;;;;;;;;;;;20.32;58.28;102271.50;5124486;28;19916;-54
2023/05/02 06:50:27;;;;;;;;;;;;;;;20.63;57.80;102275.91;5120298;28;19916;-49
2023/05/02 06:52:52;;;;;;;;;;;;;;;20.64;57.17;102282.19;5104097;28;19921;-53
2023/05/02 06:55:17;;;;;;;;;;;;;;;20.72;57.02;102281.88;5100963;28;19920;-48
2023/05/02 06:57:43;;;;;;;;;;;;;;;20.49;57.02;102290.75;5100339;28;19979;-50
2023/05/02 07:00:08;;;;;;;;;;;;;;;20.76;55.19;102290.41;5097505;28;19916;-52
2023/05/02 07:02:34;;;;;;;;;;;;;;;21.08;55.88;102292.13;5099483;28;19943;-52
2023/05/02 07:04:59;;;;;;;;;;;;;;;20.00;57.22;102287.91;5098622;28;19916;-52
2023/05/02 07:07:25;;;;;;;;;;;;;;;20.92;55.27;102297.97;5110308;28;19941;-51
2023/05/02 07:09:51;;;;;;;;;;;;;;;21.15;54.78;102296.41;5102114;28;20632;-54
2023/05/02 07:12:16;;;;;;;;;;;;;;;21.40;53.71;102303.56;5106961;28;19979;-54
2023/05/02 07:14:42;;;;;;;;;;;;;;;21.72;54.67;102307.94;5108480;28;19951;-53
2023/05/02 07:17:08;;;;;;;;;;;;;;;21.86;52.67;102309.34;5084612;28;19932;-53
2023/05/02 07:19:34;;;;;;;;;;;;;;;22.04;52.12;102313.00;5105296;28;19943;-53
2023/05/02 07:21:59;;;;;;;;;;;;;;;22.20;52.09;102320.47;5106202;28;19916;-51
2023/05/02 07:24:25;;;;;;;;;;;;;;;21.96;54.31;102316.09;5102764;28;20017;-50
2023/05/02 07:26:50;;;;;;;;;;;;;;;22.32;52.25;102314.19;5110957;28;19942;-53
2023/05/02 07:29:16;;;;;;;;;;;;;;;22.08;50.79;102318.84;5104455;28;19943;-52
2023/05/02 07:31:41;;;;;;;;;;;;;;;22.75;49.93;102321.09;5106326;28;19944;-52
2023/05/02 07:34:07;;;;;;;;;;;;;;;21.91;50.90;102325.81;5107436;28;19916;-53
2023/05/02 07:36:32;;;;;;;;;;;;;;;22.33;51.34;102322.13;5104789;28;19995;-52
2023/05/02 07:38:58;;;;;;;;;;;;;;;22.76;49.08;102328.22;5107270;28;19935;-53
2023/05/02 07:41:23;;;;;;;;;;;;;;;22.12;49.79;102331.72;5107530;28;19920;-51
2023/05/02 07:43:49;;;;;;;;;;;;;;;22.62;48.81;102330.38;5100631;28;19916;-54
2023/05/02 07:46:14;;;;;;;;;;;;;;;22.89;48.33;102338.00;5101665;28;19924;-55
2023/05/02 07:48:41;;;;;;;;;;;;;;;22.68;48.43;102342.25;5098059;28;20292;-56
2023/05/02 07:51:09;;;;;;;;;;;;;;;22.68;48.56;102344.13;5104241;28;19966;-55
2023/05/02 07:53:36;;;;;;;;;;;;;;;22.33;49.73;102343.91;5101289;28;19943;-51
2023/05/02 07:56:07;;;;;;;;;;;;;;;22.68;48.14;102350.41;5103775;28;19944;-53
2023/05/02 07:58:36;;;;;;;;;;;;;;;21.95;50.25;102353.41;5107625;28;19920;-49
2023/05/02 08:01:01;;;;;;;;;;;;;;;21.83;50.15;102350.66;5107960;28;19916;-51
2023/05/02 08:03:28;;;;;;;;;;;;;;;22.07;48.70;102361.56;5105161;28;19932;-50
2023/05/02 08:05:54;;;;;;;;;;;;;;;22.03;50.21;102357.66;5106641;28;19931;-55
2023/05/02 08:08:19;;;;;;;;;;;;;;;22.09;49.21;102362.16;5105107;28;19912;-51
2023/05/02 08:10:45;;;;;;;;;;;;;;;21.96;49.57;102356.97;5103116;28;19916;-52
2023/05/02 08:13:10;;;;;;;;;;;;;;;21.84;50.22;102368.66;5102299;28;19916;-54
2023/05/02 08:15:36;;;;;;;;;;;;;;;22.13;53.07;102371.50;5102595;28;20011;-52
2023/05/02 08:18:01;;;;;;;;;;;;;;;22.44;52.23;102372.22;5104456;28;19996;-51
2023/05/02 08:20:27;;;;;;;;;;;;;;;21.54;52.81;102377.69;5106183;28;19927;-52
2023/05/02 08:22:52;;;;;;;;;;;;;;;22.20;50.60;102388.59;5101543;28;19923;-55
2023/05/02 08:25:17;;;;;;;;;;;;;;;22.23;52.78;102381.81;5104023;28;19923;-53
2023/05/02 08:27:43;;;;;;;;;;;;;;;22.78;51.24;102383.34;5102047;28;19940;-51
2023/05/02 08:30:08;;;;;;;;;;;;;;;22.85;49.67;102385.13;5103270;28;19927;-50
2023/05/02 08:32:34;;;;;;;;;;;;;;;22.90;49.16;102385.22;5101913;28;19920;-51
2023/05/02 08:35:01;;;;;;;;;;;;;;;22.45;51.13;102394.84;5107574;28;19920;-54
2023/05/02 08:37:27;;;;;;;;;;;;;;;22.86;48.89;102401.22;5108581;28;19975;-53
2023/05/02 08:39:52;;;;;;;;;;;;;;;23.17;46.92;102409.22;5105632;28;19924;-53
2023/05/02 08:42:19;;;;;;;;;;;;;;;23.38;47.03;102410.44;5111629;28;19916;-52
2023/05/02 08:44:45;;;;;;;;;;;;;;;23.68;46.12;102411.25;5106926;28;19984;-54
2023/05/02 08:47:12;;;;;;;;;;;;;;;23.71;49.14;102421.69;5108106;28;19916;-55
2023/05/02 08:49:38;;;;;;;;;;;;;;;23.51;47.07;102422.16;5106581;28;19970;-51
2023/05/02 08:52:05;;;;;;;;;;;;;;;23.74;45.24;102421.19;5112816;28;19924;-52
2023/05/02 08:54:31;;;;;;;;;;;;;;;24.00;45.30;102429.84;5114982;28;19920;-55
2023/05/02 08:56:58;;;;;;;;;;;;;;;24.25;44.13;102425.91;5112720;28;19927;-53
2023/05/02 08:59:24;;;;;;;;;;;;;;;23.55;44.21;102429.63;5110804;28;19942;-54
2023/05/02 09:01:52;;;;;;;;;;;;;;;24.11;43.80;102436.34;5114385;28;19916;-50
2023/05/02 09:04:23;;;;;;;;;;;;;;;24.40;43.18;102444.44;5113666;28;19916;-50
2023/05/02 09:06:48;;;;;;;;;;;;;;;24.51;42.89;102445.41;5110262;28;19916;-49
2023/05/02 09:09:13;;;;;;;;;;;;;;;23.90;46.75;102444.16;5094260;28;19924;-52
2023/05/02 09:11:39;;;;;;;;;;;;;;;24.28;43.47;102452.72;5092420;28;19916;-55
2023/05/02 09:14:15;;;;;;;;;;;;;;;24.47;45.36;102450.53;5113119;28;19920;-51
2023/05/02 09:16:40;;;;;;;;;;;;;;;24.60;45.30;102454.81;5110104;28;19942;-56
2023/05/02 09:19:06;;;;;;;;;;;;;;;24.54;44.89;102455.84;5108483;28;19916;-52
2023/05/02 09:21:36;;;;;;;;;;;;;;;24.34;45.95;102459.91;5112663;28;19950;-56
2023/05/02 09:24:02;;;;;;;;;;;;;;;24.30;45.30;102461.50;5112361;28;19916;-55
2023/05/02 09:26:31;;;;;;;;;;;;;;;24.42;42.91;102464.97;5111836;28;19923;-54
2023/05/02 09:28:57;;;;;;;;;;;;;;;23.81;46.42;102453.81;5097777;28;19916;-51
2023/05/02 09:31:26;;;;;;;;;;;;;;;24.35;43.90;102472.50;5104001;28;19927;-52
2023/05/02 09:33:52;;;;;;;;;;;;;;;24.81;44.16;102472.41;5105433;28;19954;-50
2023/05/02 09:36:18;;;;;;;;;;;;;;;24.11;46.43;102464.47;5109238;28;19946;-56
2023/05/02 09:38:45;;;;;;;;;;;;;;;24.17;44.97;102474.41;5112728;28;19927;-55
2023/05/02 09:41:10;;;;;;;;;;;;;;;24.29;47.48;102470.78;5112241;28;20018;-54
2023/05/02 09:43:37;;;;;;;;;;;;;;;25.40;41.57;102483.78;5115981;28;19916;-55
2023/05/02 09:46:04;;;;;;;;;;;;;;;25.58;40.20;102480.72;5108791;28;19991;-56
2023/05/02 09:48:30;;;;;;;;;;;;;;;25.50;39.96;102486.66;5109144;28;19923;-55
2023/05/02 09:50:56;;;;;;;;;;;;;;;25.41;39.82;102494.47;5111543;28;19930;-56
2023/05/02 09:53:26;;;;;;;;;;;;;;;24.89;40.10;102490.25;5124722;28;19920;-54
2023/05/02 09:56:04;;;;;;;;;;;;;;;24.92;40.53;102492.53;5121896;28;19931;-54
2023/05/02 09:58:30;;;;;;;;;;;;;;;25.04;38.94;102493.22;5120384;28;19942;-54
2023/05/02 10:00:55;;;;;;;;;;;;;;;25.23;38.83;102492.91;5124873;28;19916;-54
2023/05/02 10:03:22;;;;;;;;;;;;;;;25.63;38.24;102486.28;5122508;28;19927;-55
2023/05/02 10:05:47;;;;;;;;;;;;;;;25.91;37.32;102494.47;5120989;28;19943;-54
2023/05/02 10:08:13;;;;;;;;;;;;;;;27.33;38.32;102491.28;5120237;28;19974;-52
2023/05/02 10:10:40;;;;;;;;;;;;;;;28.49;34.76;102488.41;5119235;28;19916;-55
2023/05/02 10:13:06;;;;;;;;;;;;;;;28.61;32.18;102497.19;5118150;28;19977;-57
2023/05/02 10:15:32;;;;;;;;;;;;;;;28.82;33.21;102501.81;5118294;28;19938;-55
2023/05/02 10:18:00;;;;;;;;;;;;;;;28.85;32.25;102502.09;5122095;28;19920;-54
2023/05/02 10:20:30;;;;;;;;;;;;;;;28.33;31.88;102507.69;5117993;28;19920;-58
2023/05/02 10:22:58;;;;;;;;;;;;;;;28.44;33.37;102505.75;5118324;28;19987;-55
2023/05/02 10:25:23;;;;;;;;;;;;;;;28.10;31.64;102505.47;5120316;28;19917;-56
2023/05/02 10:27:49;;;;;;;;;;;;;;;27.84;31.55;102511.75;5116670;28;19938;-56
2023/05/02 10:30:15;;;;;;;;;;;;;;;27.38;33.07;102503.38;5123762;28;19935;-55
2023/05/02 10:32:41;;;;;;;;;;;;;;;27.46;36.13;102505.63;5121123;28;19955;-53
2023/05/02 10:35:07;;;;;;;;;;;;;;;26.98;35.26;102512.00;5122155;28;19920;-53
2023/05/02 10:37:34;;;;;;;;;;;;;;;27.26;33.21;102515.44;5126893;28;19967;-54
2023/05/02 10:40:01;;;;;;;;;;;;;;;27.74;35.81;102512.56;5119178;28;19915;-49
2023/05/02 10:42:28;;;;;;;;;;;;;;;27.51;31.84;102521.28;5120477;27;19915;-52
2023/05/02 10:44:53;;;;;;;;;;;;;;;27.36;32.30;102522.06;5123582;28;19935;-53
2023/05/02 10:47:20;;;;;;;;;;;;;;;27.04;32.50;102521.09;5119433;28;19920;-54
2023/05/02 10:49:50;;;;;;;;;;;;;;;27.14;31.59;102523.91;5120672;28;19935;-55
2023/05/02 10:52:29;;;;;;;;;;;;;;;28.29;30.65;102511.25;5107824;28;19927;-56
2023/05/02 10:55:12;;;;;;;;;;;;;;;30.61;29.25;102525.81;5104844;28;20049;-52
2023/05/02 10:58:13;;;;;;;;;;;;;;;32.95;26.83;102530.63;5103933;28;19916;-54
2023/05/02 11:00:39;;;;;;;;;;;;;;;33.18;28.69;102535.13;5040278;28;19924;-55
2023/05/02 11:03:05;;;;;;;;;;;;;;;33.54;27.04;102541.84;5096267;28;19916;-55
2023/05/02 11:05:35;;;;;;;;;;;;;;;32.37;25.35;102541.94;5106610;28;19931;-55
2023/05/02 11:08:16;;;;;;;;;;;;;;;30.42;27.24;102533.97;5092916;28;19920;-57
2023/05/02 11:10:44;;;;;;;;;;;;;;;29.32;30.09;102544.06;5103826;28;19916;-54
2023/05/02 11:13:11;;;;;;;;;;;;;;;29.55;29.28;102544.53;5104756;28;19923;-53
2023/05/02 11:15:39;;;;;;;;;;;;;;;29.31;28.33;102534.16;5102693;28;19920;-52
2023/05/02 11:18:06;;;;;;;;;;;;;;;31.32;26.60;102546.56;5102392;28;19924;-53
2023/05/02 11:20:32;;;;;;;;;;;;;;;31.35;25.89;102542.34;5108487;28;19923;-52
2023/05/02 11:22:58;;;;;;;;;;;;;;;31.86;28.20;102538.06;5107858;28;19920;-55
2023/05/02 11:25:27;;;;;;;;;;;;;;;31.81;26.08;102552.78;5108141;28;19926;-54
2023/05/02 11:27:53;;;;;;;;;;;;;;;34.28;26.38;102555.63;5106519;28;19916;-56
2023/05/02 11:30:35;;;;;;;;;;;;;;;34.68;25.07;102549.31;5105967;28;19951;-55
2023/05/02 11:33:04;;;;;;;;;;;;;;;33.40;24.52;102550.19;5106104;28;19955;-56
2023/05/02 11:35:30;;;;;;;;;;;;;;;32.81;27.42;102550.81;5106379;28;19920;-54
2023/05/02 11:37:56;;;;;;;;;;;;;;;31.96;26.19;102545.38;5106907;28;19931;-55
2023/05/02 11:40:22;;;;;;;;;;;;;;;32.64;25.57;102547.81;5110314;28;19942;-54
2023/05/02 11:42:48;;;;;;;;;;;;;;;33.55;24.10;102549.03;5107066;28;19926;-54
2023/05/02 11:45:14;;;;;;;;;;;;;;;34.29;25.32;102546.16;5109574;28;19931;-51
2023/05/02 11:47:40;;;;;;;;;;;;;;;33.70;26.21;102549.81;5106168;28;19917;-56
2023/05/02 11:50:06;;;;;;;;;;;;;;;33.39;25.06;102554.09;5107220;28;19923;-52
2023/05/02 11:52:36;;;;;;;;;;;;;;;33.02;25.32;102553.19;5107104;28;19965;-53
2023/05/02 11:55:01;;;;;;;;;;;;;;;34.64;23.24;102562.19;5104768;28;19946;-54
2023/05/02 11:57:27;;;;;;;;;;;;;;;34.91;23.22;102554.78;5107012;28;19929;-52
2023/05/02 11:59:53;;;;;;;;;;;;;;;35.74;26.45;102558.69;5109215;28;20037;-57
2023/05/02 12:02:20;;;;;;;;;;;;;;;36.27;24.70;102559.47;5107961;28;19922;-55
2023/05/02 12:04:45;;;;;;;;;;;;;;;37.34;23.22;102562.59;5105503;28;19966;-54
2023/05/02 12:07:10;;;;;;;;;;;;;;;37.21;22.58;102561.69;5105628;28;19916;-55
2023/05/02 12:09:48;;;;;;;;;;;;;;;37.31;23.46;102567.69;5108374;28;19920;-54
2023/05/02 12:12:18;;;;;;;;;;;;;;;36.80;21.49;102569.63;5107987;28;19931;-56
2023/05/02 12:14:43;;;;;;;;;;;;;;;36.55;21.87;102570.22;5107455;28;19942;-56
2023/05/02 12:17:10;;;;;;;;;;;;;;;36.02;21.00;102580.66;5108986;28;19977;-56
2023/05/02 12:19:36;;;;;;;;;;;;;;;35.85;23.54;102571.16;5107920;28;19916;-56
2023/05/02 12:22:02;;;;;;;;;;;;;;;36.67;22.52;102577.06;5112400;28;19916;-56
2023/05/02 12:24:28;;;;;;;;;;;;;;;35.78;21.23;102581.97;5106516;28;19916;-57
2023/05/02 12:27:09;;;;;;;;;;;;;;;36.95;20.61;102584.94;5107559;28;19912;-57
2023/05/02 12:29:40;;;;;;;;;;;;;;;37.59;23.90;102571.94;5106548;28;19924;-55
2023/05/02 12:32:07;;;;;;;;;;;;;;;37.81;20.17;102587.50;5105064;28;19976;-54
2023/05/02 12:34:36;;;;;;;;;;;;;;;37.81;19.83;102595.88;5107908;28;19920;-55
2023/05/02 12:37:02;;;;;;;;;;;;;;;37.93;21.22;102592.31;5109481;28;19934;-57